sensor_id;sensor_type;location;lat;lon;timestamp;P1;durP1;ratioP1;P2;durP2;ratioP2
30185;SDS011;31152;49.190;8.122;2022-08-03T00:01:41;4.30;;;2.42;;
30185;SDS011;31152;49.190;8.122;2022-08-03T00:04:09;3.42;;;2.70;;
30185;SDS011;31152;49.190;8.122;2022-08-03T00:06:36;5.43;;;2.92;;
30185;SDS011;31152;49.190;8.122;2022-08-03T00:09:05;5.68;;;2.65;;
30185;SDS011;31152;49.190;8.122;2022-08-03T00:11:32;5.57;;;2.70;;
30185;SDS011;31152;49.190;8.122;2022-08-03T00:14:00;4.00;;;2.75;;
30185;SDS011;31152;49.190;8.122;2022-08-03T00:16:30;2.65;;;2.45;;
30185;SDS011;31152;49.190;8.122;2022-08-03T00:18:59;3.72;;;3.05;;
30185;SDS011;31152;49.190;8.122;2022-08-03T00:21:27;4.53;;;2.83;;
30185;SDS011;31152;49.190;8.122;2022-08-03T00:23:56;4.15;;;2.83;;
30185;SDS011;31152;49.190;8.122;2022-08-03T00:26:25;2.78;;;2.45;;
30185;SDS011;31152;49.190;8.122;2022-08-03T00:28:55;5.10;;;2.85;;
30185;SDS011;31152;49.190;8.122;2022-08-03T00:31:21;4.32;;;2.75;;
30185;SDS011;31152;49.190;8.122;2022-08-03T00:34:10;3.92;;;2.70;;
30185;SDS011;31152;49.190;8.122;2022-08-03T00:36:37;3.17;;;2.65;;
30185;SDS011;31152;49.190;8.122;2022-08-03T00:39:04;4.07;;;2.63;;
30185;SDS011;31152;49.190;8.122;2022-08-03T00:41:31;3.22;;;2.92;;
30185;SDS011;31152;49.190;8.122;2022-08-03T00:44:00;5.53;;;2.58;;
30185;SDS011;31152;49.190;8.122;2022-08-03T00:46:29;4.75;;;2.85;;
30185;SDS011;31152;49.190;8.122;2022-08-03T00:48:56;3.60;;;2.40;;
30185;SDS011;31152;49.190;8.122;2022-08-03T00:51:22;4.55;;;2.65;;
30185;SDS011;31152;49.190;8.122;2022-08-03T00:53:53;3.88;;;2.67;;
30185;SDS011;31152;49.190;8.122;2022-08-03T00:56:22;4.72;;;2.63;;
30185;SDS011;31152;49.190;8.122;2022-08-03T00:58:49;3.60;;;2.60;;
30185;SDS011;31152;49.190;8.122;2022-08-03T01:01:22;3.95;;;2.92;;
30185;SDS011;31152;49.190;8.122;2022-08-03T01:03:51;4.93;;;2.90;;
30185;SDS011;31152;49.190;8.122;2022-08-03T01:06:19;3.65;;;3.00;;
30185;SDS011;31152;49.190;8.122;2022-08-03T01:09:18;4.57;;;2.60;;
30185;SDS011;31152;49.190;8.122;2022-08-03T01:12:02;3.55;;;2.80;;
30185;SDS011;31152;49.190;8.122;2022-08-03T01:17:24;3.47;;;3.00;;
30185;SDS011;31152;49.190;8.122;2022-08-03T01:20:00;3.50;;;2.95;;
30185;SDS011;31152;49.190;8.122;2022-08-03T01:30:53;6.43;;;2.38;;
30185;SDS011;31152;49.190;8.122;2022-08-03T01:33:30;3.25;;;2.80;;
30185;SDS011;31152;49.190;8.122;2022-08-03T01:36:12;4.88;;;2.72;;
30185;SDS011;31152;49.190;8.122;2022-08-03T01:38:47;3.45;;;2.70;;
30185;SDS011;31152;49.190;8.122;2022-08-03T01:41:20;3.75;;;2.67;;
30185;SDS011;31152;49.190;8.122;2022-08-03T01:43:49;3.47;;;2.47;;
30185;SDS011;31152;49.190;8.122;2022-08-03T01:46:38;3.28;;;2.67;;
30185;SDS011;31152;49.190;8.122;2022-08-03T01:49:14;3.65;;;2.92;;
30185;SDS011;31152;49.190;8.122;2022-08-03T01:51:43;5.20;;;2.70;;
30185;SDS011;31152;49.190;8.122;2022-08-03T01:54:32;4.07;;;2.80;;
30185;SDS011;31152;49.190;8.122;2022-08-03T01:57:05;4.15;;;2.60;;
30185;SDS011;31152;49.190;8.122;2022-08-03T01:59:34;3.00;;;2.55;;
30185;SDS011;31152;49.190;8.122;2022-08-03T02:02:03;4.40;;;2.97;;
30185;SDS011;31152;49.190;8.122;2022-08-03T02:04:51;3.55;;;2.95;;
30185;SDS011;31152;49.190;8.122;2022-08-03T02:07:20;4.85;;;2.80;;
30185;SDS011;31152;49.190;8.122;2022-08-03T02:09:48;3.30;;;2.83;;
30185;SDS011;31152;49.190;8.122;2022-08-03T02:12:17;5.18;;;2.90;;
30185;SDS011;31152;49.190;8.122;2022-08-03T02:14:45;5.85;;;2.95;;
30185;SDS011;31152;49.190;8.122;2022-08-03T02:17:14;4.85;;;2.70;;
30185;SDS011;31152;49.190;8.122;2022-08-03T02:20:04;7.57;;;2.85;;
30185;SDS011;31152;49.190;8.122;2022-08-03T02:22:34;4.15;;;2.95;;
30185;SDS011;31152;49.190;8.122;2022-08-03T02:25:04;3.83;;;2.92;;
30185;SDS011;31152;49.190;8.122;2022-08-03T02:27:37;6.97;;;3.15;;
30185;SDS011;31152;49.190;8.122;2022-08-03T02:32:38;3.30;;;2.70;;
30185;SDS011;31152;49.190;8.122;2022-08-03T02:35:11;3.38;;;2.83;;
30185;SDS011;31152;49.190;8.122;2022-08-03T02:37:41;4.13;;;2.50;;
30185;SDS011;31152;49.190;8.122;2022-08-03T02:40:15;3.17;;;2.40;;
30185;SDS011;31152;49.190;8.122;2022-08-03T02:42:45;5.35;;;3.10;;
30185;SDS011;31152;49.190;8.122;2022-08-03T02:45:14;5.25;;;2.90;;
30185;SDS011;31152;49.190;8.122;2022-08-03T02:47:43;3.33;;;2.83;;
30185;SDS011;31152;49.190;8.122;2022-08-03T02:50:20;4.25;;;2.90;;
30185;SDS011;31152;49.190;8.122;2022-08-03T02:52:48;3.40;;;3.10;;
30185;SDS011;31152;49.190;8.122;2022-08-03T02:55:16;3.22;;;2.90;;
30185;SDS011;31152;49.190;8.122;2022-08-03T02:57:45;5.85;;;2.72;;
30185;SDS011;31152;49.190;8.122;2022-08-03T03:00:13;4.72;;;2.55;;
30185;SDS011;31152;49.190;8.122;2022-08-03T03:02:53;5.70;;;2.90;;
30185;SDS011;31152;49.190;8.122;2022-08-03T03:05:25;5.60;;;2.63;;
30185;SDS011;31152;49.190;8.122;2022-08-03T03:08:13;4.32;;;2.80;;
30185;SDS011;31152;49.190;8.122;2022-08-03T03:10:45;3.97;;;2.92;;
30185;SDS011;31152;49.190;8.122;2022-08-03T03:13:14;4.43;;;2.80;;
30185;SDS011;31152;49.190;8.122;2022-08-03T03:15:44;7.07;;;3.25;;
30185;SDS011;31152;49.190;8.122;2022-08-03T03:18:13;2.95;;;2.63;;
30185;SDS011;31152;49.190;8.122;2022-08-03T03:20:47;4.47;;;2.85;;
30185;SDS011;31152;49.190;8.122;2022-08-03T03:23:15;4.63;;;2.58;;
30185;SDS011;31152;49.190;8.122;2022-08-03T03:25:43;5.53;;;2.78;;
30185;SDS011;31152;49.190;8.122;2022-08-03T03:28:10;4.95;;;3.08;;
30185;SDS011;31152;49.190;8.122;2022-08-03T03:30:40;3.10;;;2.80;;
30185;SDS011;31152;49.190;8.122;2022-08-03T03:33:07;5.97;;;2.75;;
30185;SDS011;31152;49.190;8.122;2022-08-03T03:35:34;3.65;;;2.90;;
30185;SDS011;31152;49.190;8.122;2022-08-03T03:38:07;4.22;;;3.03;;
30185;SDS011;31152;49.190;8.122;2022-08-03T03:40:34;3.85;;;2.58;;
30185;SDS011;31152;49.190;8.122;2022-08-03T03:43:02;7.45;;;2.65;;
30185;SDS011;31152;49.190;8.122;2022-08-03T03:45:32;4.07;;;3.22;;
30185;SDS011;31152;49.190;8.122;2022-08-03T03:48:00;5.60;;;2.88;;
30185;SDS011;31152;49.190;8.122;2022-08-03T03:50:33;5.43;;;3.38;;
30185;SDS011;31152;49.190;8.122;2022-08-03T03:53:01;5.82;;;2.30;;
30185;SDS011;31152;49.190;8.122;2022-08-03T03:55:29;6.75;;;2.88;;
30185;SDS011;31152;49.190;8.122;2022-08-03T03:57:55;4.35;;;2.80;;
30185;SDS011;31152;49.190;8.122;2022-08-03T04:00:22;8.38;;;3.33;;
30185;SDS011;31152;49.190;8.122;2022-08-03T04:02:49;4.40;;;2.72;;
30185;SDS011;31152;49.190;8.122;2022-08-03T04:05:15;3.88;;;2.45;;
30185;SDS011;31152;49.190;8.122;2022-08-03T04:08:14;4.78;;;2.70;;
30185;SDS011;31152;49.190;8.122;2022-08-03T04:13:59;7.82;;;2.72;;
30185;SDS011;31152;49.190;8.122;2022-08-03T04:16:34;2.88;;;2.60;;
30185;SDS011;31152;49.190;8.122;2022-08-03T04:19:09;6.55;;;2.88;;
30185;SDS011;31152;49.190;8.122;2022-08-03T04:21:47;5.45;;;2.95;;
30185;SDS011;31152;49.190;8.122;2022-08-03T04:24:17;8.05;;;2.88;;
30185;SDS011;31152;49.190;8.122;2022-08-03T04:29:18;2.92;;;2.63;;
30185;SDS011;31152;49.190;8.122;2022-08-03T04:31:49;5.75;;;2.88;;
30185;SDS011;31152;49.190;8.122;2022-08-03T04:34:19;4.82;;;2.70;;
30185;SDS011;31152;49.190;8.122;2022-08-03T04:36:49;4.20;;;2.50;;
30185;SDS011;31152;49.190;8.122;2022-08-03T04:39:23;5.47;;;2.70;;
30185;SDS011;31152;49.190;8.122;2022-08-03T04:41:56;5.93;;;2.97;;
30185;SDS011;31152;49.190;8.122;2022-08-03T04:44:38;3.65;;;2.70;;
30185;SDS011;31152;49.190;8.122;2022-08-03T04:47:07;7.55;;;2.78;;
30185;SDS011;31152;49.190;8.122;2022-08-03T04:49:36;4.38;;;2.92;;
30185;SDS011;31152;49.190;8.122;2022-08-03T04:52:04;6.75;;;3.13;;
30185;SDS011;31152;49.190;8.122;2022-08-03T04:54:40;4.03;;;2.80;;
30185;SDS011;31152;49.190;8.122;2022-08-03T04:57:16;4.47;;;3.33;;
30185;SDS011;31152;49.190;8.122;2022-08-03T04:59:51;6.95;;;3.45;;
30185;SDS011;31152;49.190;8.122;2022-08-03T05:02:28;10.40;;;3.60;;
30185;SDS011;31152;49.190;8.122;2022-08-03T05:04:56;4.97;;;3.33;;
30185;SDS011;31152;49.190;8.122;2022-08-03T05:07:23;7.93;;;2.90;;
30185;SDS011;31152;49.190;8.122;2022-08-03T05:09:51;5.65;;;3.05;;
30185;SDS011;31152;49.190;8.122;2022-08-03T05:12:28;8.35;;;3.20;;
30185;SDS011;31152;49.190;8.122;2022-08-03T05:14:58;5.22;;;2.97;;
30185;SDS011;31152;49.190;8.122;2022-08-03T05:17:27;5.30;;;3.17;;
30185;SDS011;31152;49.190;8.122;2022-08-03T05:19:54;7.95;;;3.30;;
30185;SDS011;31152;49.190;8.122;2022-08-03T05:22:22;6.72;;;3.55;;
30185;SDS011;31152;49.190;8.122;2022-08-03T05:24:48;18.23;;;3.97;;
30185;SDS011;31152;49.190;8.122;2022-08-03T05:27:17;6.78;;;3.22;;
30185;SDS011;31152;49.190;8.122;2022-08-03T05:29:45;6.22;;;3.38;;
30185;SDS011;31152;49.190;8.122;2022-08-03T05:32:13;5.78;;;3.30;;
30185;SDS011;31152;49.190;8.122;2022-08-03T05:34:40;5.43;;;3.10;;
30185;SDS011;31152;49.190;8.122;2022-08-03T05:37:07;5.43;;;3.47;;
30185;SDS011;31152;49.190;8.122;2022-08-03T05:39:34;5.15;;;3.17;;
30185;SDS011;31152;49.190;8.122;2022-08-03T05:42:01;4.95;;;3.20;;
30185;SDS011;31152;49.190;8.122;2022-08-03T05:44:28;7.22;;;3.42;;
30185;SDS011;31152;49.190;8.122;2022-08-03T05:46:56;9.82;;;3.33;;
30185;SDS011;31152;49.190;8.122;2022-08-03T05:49:24;10.68;;;3.55;;
30185;SDS011;31152;49.190;8.122;2022-08-03T05:51:51;11.98;;;3.58;;
30185;SDS011;31152;49.190;8.122;2022-08-03T05:54:37;6.53;;;3.10;;
30185;SDS011;31152;49.190;8.122;2022-08-03T05:57:23;12.88;;;3.92;;
30185;SDS011;31152;49.190;8.122;2022-08-03T05:59:50;4.75;;;2.88;;
30185;SDS011;31152;49.190;8.122;2022-08-03T06:02:26;4.45;;;3.00;;
30185;SDS011;31152;49.190;8.122;2022-08-03T06:04:53;9.63;;;3.85;;
30185;SDS011;31152;49.190;8.122;2022-08-03T06:07:19;6.85;;;3.15;;
30185;SDS011;31152;49.190;8.122;2022-08-03T06:09:46;7.65;;;3.17;;
30185;SDS011;31152;49.190;8.122;2022-08-03T06:12:38;8.68;;;3.30;;
30185;SDS011;31152;49.190;8.122;2022-08-03T06:15:06;9.32;;;3.80;;
30185;SDS011;31152;49.190;8.122;2022-08-03T06:17:43;9.48;;;3.45;;
30185;SDS011;31152;49.190;8.122;2022-08-03T06:20:17;9.55;;;3.42;;
30185;SDS011;31152;49.190;8.122;2022-08-03T06:22:45;7.13;;;3.22;;
30185;SDS011;31152;49.190;8.122;2022-08-03T06:25:16;6.75;;;3.47;;
30185;SDS011;31152;49.190;8.122;2022-08-03T06:27:46;9.70;;;3.00;;
30185;SDS011;31152;49.190;8.122;2022-08-03T06:30:15;4.85;;;3.30;;
30185;SDS011;31152;49.190;8.122;2022-08-03T06:32:46;5.60;;;3.20;;
30185;SDS011;31152;49.190;8.122;2022-08-03T06:35:17;9.45;;;3.20;;
30185;SDS011;31152;49.190;8.122;2022-08-03T06:37:48;6.75;;;2.75;;
30185;SDS011;31152;49.190;8.122;2022-08-03T06:40:18;5.15;;;2.60;;
30185;SDS011;31152;49.190;8.122;2022-08-03T06:42:49;5.83;;;2.90;;
30185;SDS011;31152;49.190;8.122;2022-08-03T06:45:16;4.35;;;2.60;;
30185;SDS011;31152;49.190;8.122;2022-08-03T06:47:43;5.05;;;3.10;;
30185;SDS011;31152;49.190;8.122;2022-08-03T06:50:12;7.25;;;3.03;;
30185;SDS011;31152;49.190;8.122;2022-08-03T06:52:42;6.35;;;2.22;;
30185;SDS011;31152;49.190;8.122;2022-08-03T06:55:11;4.47;;;1.92;;
30185;SDS011;31152;49.190;8.122;2022-08-03T06:57:38;5.43;;;2.30;;
30185;SDS011;31152;49.190;8.122;2022-08-03T07:00:05;5.25;;;2.13;;
30185;SDS011;31152;49.190;8.122;2022-08-03T07:02:37;4.97;;;2.70;;
30185;SDS011;31152;49.190;8.122;2022-08-03T07:05:05;5.95;;;2.10;;
30185;SDS011;31152;49.190;8.122;2022-08-03T07:07:32;7.55;;;2.42;;
30185;SDS011;31152;49.190;8.122;2022-08-03T07:10:03;10.50;;;3.10;;
30185;SDS011;31152;49.190;8.122;2022-08-03T07:12:31;7.40;;;2.40;;
30185;SDS011;31152;49.190;8.122;2022-08-03T07:14:59;10.32;;;2.92;;
30185;SDS011;31152;49.190;8.122;2022-08-03T07:17:31;6.40;;;2.22;;
30185;SDS011;31152;49.190;8.122;2022-08-03T07:20:00;7.53;;;2.17;;
30185;SDS011;31152;49.190;8.122;2022-08-03T07:22:32;6.43;;;1.77;;
30185;SDS011;31152;49.190;8.122;2022-08-03T07:25:01;5.72;;;2.10;;
30185;SDS011;31152;49.190;8.122;2022-08-03T07:27:30;4.07;;;2.40;;
30185;SDS011;31152;49.190;8.122;2022-08-03T07:29:58;6.68;;;2.38;;
30185;SDS011;31152;49.190;8.122;2022-08-03T07:32:26;6.38;;;2.38;;
30185;SDS011;31152;49.190;8.122;2022-08-03T07:34:56;8.23;;;2.50;;
30185;SDS011;31152;49.190;8.122;2022-08-03T07:37:26;5.43;;;2.65;;
30185;SDS011;31152;49.190;8.122;2022-08-03T07:39:59;6.97;;;2.35;;
30185;SDS011;31152;49.190;8.122;2022-08-03T07:42:27;8.10;;;2.20;;
30185;SDS011;31152;49.190;8.122;2022-08-03T07:44:55;4.57;;;2.15;;
30185;SDS011;31152;49.190;8.122;2022-08-03T07:47:23;5.95;;;2.20;;
30185;SDS011;31152;49.190;8.122;2022-08-03T07:50:01;5.05;;;2.20;;
30185;SDS011;31152;49.190;8.122;2022-08-03T07:52:31;12.27;;;2.72;;
30185;SDS011;31152;49.190;8.122;2022-08-03T07:55:13;10.38;;;2.20;;
30185;SDS011;31152;49.190;8.122;2022-08-03T07:57:43;7.07;;;2.30;;
30185;SDS011;31152;49.190;8.122;2022-08-03T08:00:16;7.05;;;2.45;;
30185;SDS011;31152;49.190;8.122;2022-08-03T08:02:44;5.32;;;2.70;;
30185;SDS011;31152;49.190;8.122;2022-08-03T08:05:11;7.95;;;2.30;;
30185;SDS011;31152;49.190;8.122;2022-08-03T08:07:38;7.80;;;2.20;;
30185;SDS011;31152;49.190;8.122;2022-08-03T08:10:06;5.68;;;2.35;;
30185;SDS011;31152;49.190;8.122;2022-08-03T08:12:35;8.43;;;2.05;;
30185;SDS011;31152;49.190;8.122;2022-08-03T08:15:03;7.53;;;1.90;;
30185;SDS011;31152;49.190;8.122;2022-08-03T08:17:40;3.65;;;2.28;;
30185;SDS011;31152;49.190;8.122;2022-08-03T08:20:08;33.85;;;5.13;;
30185;SDS011;31152;49.190;8.122;2022-08-03T08:22:36;7.97;;;2.20;;
30185;SDS011;31152;49.190;8.122;2022-08-03T08:25:06;8.50;;;2.60;;
30185;SDS011;31152;49.190;8.122;2022-08-03T08:27:39;5.40;;;2.33;;
30185;SDS011;31152;49.190;8.122;2022-08-03T08:30:31;12.30;;;2.60;;
30185;SDS011;31152;49.190;8.122;2022-08-03T08:33:00;5.57;;;2.25;;
30185;SDS011;31152;49.190;8.122;2022-08-03T08:35:27;6.80;;;2.55;;
30185;SDS011;31152;49.190;8.122;2022-08-03T08:37:54;2.78;;;2.20;;
30185;SDS011;31152;49.190;8.122;2022-08-03T08:40:21;6.28;;;2.25;;
30185;SDS011;31152;49.190;8.122;2022-08-03T08:42:52;8.07;;;2.40;;
30185;SDS011;31152;49.190;8.122;2022-08-03T08:45:24;6.13;;;2.13;;
30185;SDS011;31152;49.190;8.122;2022-08-03T08:47:51;5.93;;;2.00;;
30185;SDS011;31152;49.190;8.122;2022-08-03T08:50:26;8.85;;;2.10;;
30185;SDS011;31152;49.190;8.122;2022-08-03T08:52:54;4.28;;;2.10;;
30185;SDS011;31152;49.190;8.122;2022-08-03T08:55:24;9.10;;;2.28;;
30185;SDS011;31152;49.190;8.122;2022-08-03T08:58:14;6.57;;;2.55;;
30185;SDS011;31152;49.190;8.122;2022-08-03T09:00:46;2.65;;;2.00;;
30185;SDS011;31152;49.190;8.122;2022-08-03T09:03:13;8.15;;;2.42;;
30185;SDS011;31152;49.190;8.122;2022-08-03T09:05:54;12.85;;;2.88;;
30185;SDS011;31152;49.190;8.122;2022-08-03T09:08:23;7.38;;;1.92;;
30185;SDS011;31152;49.190;8.122;2022-08-03T09:10:54;5.57;;;2.03;;
30185;SDS011;31152;49.190;8.122;2022-08-03T09:13:21;6.13;;;2.40;;
30185;SDS011;31152;49.190;8.122;2022-08-03T09:15:48;8.80;;;2.88;;
30185;SDS011;31152;49.190;8.122;2022-08-03T09:18:33;4.75;;;2.33;;
30185;SDS011;31152;49.190;8.122;2022-08-03T09:24:02;6.55;;;1.88;;
30185;SDS011;31152;49.190;8.122;2022-08-03T09:26:48;11.15;;;2.35;;
30185;SDS011;31152;49.190;8.122;2022-08-03T09:29:19;5.20;;;2.25;;
30185;SDS011;31152;49.190;8.122;2022-08-03T09:31:46;10.93;;;1.98;;
30185;SDS011;31152;49.190;8.122;2022-08-03T09:34:14;3.80;;;2.20;;
30185;SDS011;31152;49.190;8.122;2022-08-03T09:36:46;3.00;;;1.67;;
30185;SDS011;31152;49.190;8.122;2022-08-03T09:39:19;5.40;;;2.65;;
30185;SDS011;31152;49.190;8.122;2022-08-03T09:42:14;3.40;;;2.35;;
30185;SDS011;31152;49.190;8.122;2022-08-03T09:44:47;2.95;;;1.90;;
30185;SDS011;31152;49.190;8.122;2022-08-03T09:47:26;4.97;;;2.15;;
30185;SDS011;31152;49.190;8.122;2022-08-03T09:49:59;4.78;;;2.40;;
30185;SDS011;31152;49.190;8.122;2022-08-03T09:52:31;12.05;;;2.30;;
30185;SDS011;31152;49.190;8.122;2022-08-03T09:55:18;9.23;;;2.75;;
30185;SDS011;31152;49.190;8.122;2022-08-03T09:58:08;9.55;;;2.95;;
30185;SDS011;31152;49.190;8.122;2022-08-03T10:03:30;4.25;;;2.17;;
30185;SDS011;31152;49.190;8.122;2022-08-03T10:06:22;7.73;;;2.20;;
30185;SDS011;31152;49.190;8.122;2022-08-03T10:09:04;3.45;;;1.80;;
30185;SDS011;31152;49.190;8.122;2022-08-03T10:11:35;5.72;;;2.20;;
30185;SDS011;31152;49.190;8.122;2022-08-03T10:14:08;3.15;;;1.92;;
30185;SDS011;31152;49.190;8.122;2022-08-03T10:16:39;17.45;;;2.90;;
30185;SDS011;31152;49.190;8.122;2022-08-03T10:19:06;4.40;;;1.75;;
30185;SDS011;31152;49.190;8.122;2022-08-03T10:21:35;5.63;;;1.92;;
30185;SDS011;31152;49.190;8.122;2022-08-03T10:24:04;2.00;;;1.80;;
30185;SDS011;31152;49.190;8.122;2022-08-03T10:26:35;2.33;;;1.80;;
30185;SDS011;31152;49.190;8.122;2022-08-03T10:29:17;2.78;;;2.00;;
30185;SDS011;31152;49.190;8.122;2022-08-03T10:31:50;6.55;;;1.90;;
30185;SDS011;31152;49.190;8.122;2022-08-03T10:34:25;5.07;;;2.15;;
30185;SDS011;31152;49.190;8.122;2022-08-03T10:36:55;4.85;;;2.08;;
30185;SDS011;31152;49.190;8.122;2022-08-03T10:39:25;3.88;;;2.40;;
30185;SDS011;31152;49.190;8.122;2022-08-03T10:41:54;3.13;;;2.30;;
30185;SDS011;31152;49.190;8.122;2022-08-03T10:44:25;4.88;;;2.50;;
30185;SDS011;31152;49.190;8.122;2022-08-03T10:46:57;5.45;;;2.20;;
30185;SDS011;31152;49.190;8.122;2022-08-03T10:49:29;5.05;;;2.13;;
30185;SDS011;31152;49.190;8.122;2022-08-03T10:52:00;5.13;;;2.08;;
30185;SDS011;31152;49.190;8.122;2022-08-03T10:54:52;8.18;;;2.28;;
30185;SDS011;31152;49.190;8.122;2022-08-03T10:57:42;5.88;;;2.05;;
30185;SDS011;31152;49.190;8.122;2022-08-03T11:00:21;2.33;;;2.00;;
30185;SDS011;31152;49.190;8.122;2022-08-03T11:03:01;4.82;;;2.10;;
30185;SDS011;31152;49.190;8.122;2022-08-03T11:05:29;6.40;;;1.90;;
30185;SDS011;31152;49.190;8.122;2022-08-03T11:16:45;4.20;;;2.30;;
30185;SDS011;31152;49.190;8.122;2022-08-03T11:19:15;4.72;;;2.10;;
30185;SDS011;31152;49.190;8.122;2022-08-03T11:35:15;4.25;;;2.00;;
30185;SDS011;31152;49.190;8.122;2022-08-03T11:45:57;5.70;;;1.77;;
30185;SDS011;31152;49.190;8.122;2022-08-03T11:48:39;3.33;;;2.10;;
30185;SDS011;31152;49.190;8.122;2022-08-03T11:53:55;6.40;;;2.00;;
30185;SDS011;31152;49.190;8.122;2022-08-03T11:56:24;2.17;;;1.60;;
30185;SDS011;31152;49.190;8.122;2022-08-03T11:58:52;7.32;;;1.88;;
30185;SDS011;31152;49.190;8.122;2022-08-03T12:01:40;6.50;;;2.13;;
30185;SDS011;31152;49.190;8.122;2022-08-03T12:04:07;3.22;;;2.30;;
30185;SDS011;31152;49.190;8.122;2022-08-03T12:06:37;4.53;;;2.28;;
30185;SDS011;31152;49.190;8.122;2022-08-03T12:09:20;2.97;;;2.25;;
30185;SDS011;31152;49.190;8.122;2022-08-03T12:11:47;6.53;;;1.98;;
30185;SDS011;31152;49.190;8.122;2022-08-03T12:14:25;3.58;;;2.10;;
30185;SDS011;31152;49.190;8.122;2022-08-03T12:17:15;3.70;;;1.85;;
30185;SDS011;31152;49.190;8.122;2022-08-03T12:19:43;4.25;;;1.80;;
30185;SDS011;31152;49.190;8.122;2022-08-03T12:22:10;5.85;;;1.88;;
30185;SDS011;31152;49.190;8.122;2022-08-03T12:24:44;2.80;;;1.80;;
30185;SDS011;31152;49.190;8.122;2022-08-03T12:27:21;4.90;;;2.10;;
30185;SDS011;31152;49.190;8.122;2022-08-03T12:29:55;8.65;;;2.03;;
30185;SDS011;31152;49.190;8.122;2022-08-03T12:32:25;3.95;;;1.80;;
30185;SDS011;31152;49.190;8.122;2022-08-03T12:34:55;3.33;;;1.80;;
30185;SDS011;31152;49.190;8.122;2022-08-03T12:37:31;3.78;;;1.95;;
30185;SDS011;31152;49.190;8.122;2022-08-03T12:39:59;3.15;;;1.73;;
30185;SDS011;31152;49.190;8.122;2022-08-03T12:42:37;2.55;;;1.80;;
30185;SDS011;31152;49.190;8.122;2022-08-03T12:48:09;4.90;;;2.10;;
30185;SDS011;31152;49.190;8.122;2022-08-03T12:50:37;3.35;;;1.63;;
30185;SDS011;31152;49.190;8.122;2022-08-03T12:53:05;3.70;;;1.80;;
30185;SDS011;31152;49.190;8.122;2022-08-03T12:55:35;3.33;;;2.22;;
30185;SDS011;31152;49.190;8.122;2022-08-03T12:58:32;4.70;;;1.98;;
30185;SDS011;31152;49.190;8.122;2022-08-03T13:01:04;1.98;;;1.70;;
30185;SDS011;31152;49.190;8.122;2022-08-03T13:03:39;3.30;;;1.80;;
30185;SDS011;31152;49.190;8.122;2022-08-03T13:06:18;2.13;;;1.80;;
30185;SDS011;31152;49.190;8.122;2022-08-03T13:08:49;2.22;;;1.80;;
30185;SDS011;31152;49.190;8.122;2022-08-03T13:11:30;1.90;;;1.70;;
30185;SDS011;31152;49.190;8.122;2022-08-03T13:14:16;4.57;;;1.80;;
30185;SDS011;31152;49.190;8.122;2022-08-03T13:16:46;1.70;;;1.60;;
30185;SDS011;31152;49.190;8.122;2022-08-03T13:19:14;3.28;;;1.80;;
30185;SDS011;31152;49.190;8.122;2022-08-03T13:21:43;2.10;;;1.90;;
30185;SDS011;31152;49.190;8.122;2022-08-03T13:24:29;2.45;;;1.75;;
30185;SDS011;31152;49.190;8.122;2022-08-03T13:26:59;1.65;;;1.55;;
30185;SDS011;31152;49.190;8.122;2022-08-03T13:29:47;2.38;;;1.63;;
30185;SDS011;31152;49.190;8.122;2022-08-03T13:32:18;2.38;;;1.60;;
30185;SDS011;31152;49.190;8.122;2022-08-03T13:34:45;3.85;;;1.80;;
30185;SDS011;31152;49.190;8.122;2022-08-03T13:37:14;1.90;;;1.80;;
30185;SDS011;31152;49.190;8.122;2022-08-03T13:39:41;2.80;;;1.40;;
30185;SDS011;31152;49.190;8.122;2022-08-03T13:42:26;3.47;;;1.70;;
30185;SDS011;31152;49.190;8.122;2022-08-03T13:44:56;4.15;;;1.90;;
30185;SDS011;31152;49.190;8.122;2022-08-03T13:47:23;5.80;;;1.85;;
30185;SDS011;31152;49.190;8.122;2022-08-03T13:49:50;2.65;;;1.80;;
30185;SDS011;31152;49.190;8.122;2022-08-03T13:52:25;5.07;;;1.60;;
30185;SDS011;31152;49.190;8.122;2022-08-03T13:54:55;4.68;;;1.63;;
30185;SDS011;31152;49.190;8.122;2022-08-03T13:57:21;4.15;;;1.70;;
30185;SDS011;31152;49.190;8.122;2022-08-03T14:00:09;3.95;;;1.58;;
30185;SDS011;31152;49.190;8.122;2022-08-03T14:02:37;1.70;;;1.60;;
30185;SDS011;31152;49.190;8.122;2022-08-03T14:05:04;4.35;;;1.63;;
30185;SDS011;31152;49.190;8.122;2022-08-03T14:07:31;3.55;;;1.50;;
30185;SDS011;31152;49.190;8.122;2022-08-03T14:09:58;3.05;;;1.70;;
30185;SDS011;31152;49.190;8.122;2022-08-03T14:12:26;3.50;;;1.48;;
30185;SDS011;31152;49.190;8.122;2022-08-03T14:14:53;1.73;;;1.63;;
30185;SDS011;31152;49.190;8.122;2022-08-03T14:17:24;4.13;;;1.60;;
30185;SDS011;31152;49.190;8.122;2022-08-03T14:20:07;3.75;;;1.80;;
30185;SDS011;31152;49.190;8.122;2022-08-03T14:22:54;5.13;;;1.80;;
30185;SDS011;31152;49.190;8.122;2022-08-03T14:25:21;6.32;;;1.70;;
30185;SDS011;31152;49.190;8.122;2022-08-03T14:27:48;1.98;;;1.65;;
30185;SDS011;31152;49.190;8.122;2022-08-03T14:30:15;3.13;;;1.70;;
30185;SDS011;31152;49.190;8.122;2022-08-03T14:32:44;1.92;;;1.50;;
30185;SDS011;31152;49.190;8.122;2022-08-03T14:35:11;3.08;;;1.60;;
30185;SDS011;31152;49.190;8.122;2022-08-03T14:37:43;2.80;;;1.60;;
30185;SDS011;31152;49.190;8.122;2022-08-03T14:40:10;1.85;;;1.52;;
30185;SDS011;31152;49.190;8.122;2022-08-03T14:42:36;2.88;;;1.60;;
30185;SDS011;31152;49.190;8.122;2022-08-03T14:45:05;7.97;;;1.70;;
30185;SDS011;31152;49.190;8.122;2022-08-03T14:47:45;2.33;;;2.00;;
30185;SDS011;31152;49.190;8.122;2022-08-03T14:50:31;1.88;;;1.50;;
30185;SDS011;31152;49.190;8.122;2022-08-03T14:53:09;6.70;;;1.98;;
30185;SDS011;31152;49.190;8.122;2022-08-03T14:55:38;4.55;;;2.15;;
30185;SDS011;31152;49.190;8.122;2022-08-03T14:58:16;4.13;;;1.85;;
30185;SDS011;31152;49.190;8.122;2022-08-03T15:00:48;3.88;;;2.17;;
30185;SDS011;31152;49.190;8.122;2022-08-03T15:03:16;2.55;;;2.03;;
30185;SDS011;31152;49.190;8.122;2022-08-03T15:05:46;4.30;;;1.90;;
30185;SDS011;31152;49.190;8.122;2022-08-03T15:08:15;4.25;;;1.70;;
30185;SDS011;31152;49.190;8.122;2022-08-03T15:10:45;4.53;;;2.08;;
30185;SDS011;31152;49.190;8.122;2022-08-03T15:13:14;4.60;;;2.72;;
30185;SDS011;31152;49.190;8.122;2022-08-03T15:15:42;3.95;;;2.10;;
30185;SDS011;31152;49.190;8.122;2022-08-03T15:18:11;6.47;;;2.10;;
30185;SDS011;31152;49.190;8.122;2022-08-03T15:20:41;2.03;;;1.88;;
30185;SDS011;31152;49.190;8.122;2022-08-03T15:23:11;7.93;;;1.85;;
30185;SDS011;31152;49.190;8.122;2022-08-03T15:25:39;2.10;;;1.90;;
30185;SDS011;31152;49.190;8.122;2022-08-03T15:28:27;5.32;;;2.17;;
30185;SDS011;31152;49.190;8.122;2022-08-03T15:30:54;4.18;;;1.92;;
30185;SDS011;31152;49.190;8.122;2022-08-03T15:33:21;4.15;;;1.95;;
30185;SDS011;31152;49.190;8.122;2022-08-03T15:35:48;3.00;;;2.20;;
30185;SDS011;31152;49.190;8.122;2022-08-03T15:38:18;3.22;;;2.10;;
30185;SDS011;31152;49.190;8.122;2022-08-03T15:40:51;4.10;;;2.70;;
30185;SDS011;31152;49.190;8.122;2022-08-03T15:43:20;1.70;;;1.60;;
30185;SDS011;31152;49.190;8.122;2022-08-03T15:45:47;4.00;;;2.00;;
30185;SDS011;31152;49.190;8.122;2022-08-03T15:48:39;3.67;;;2.22;;
30185;SDS011;31152;49.190;8.122;2022-08-03T15:51:06;4.55;;;2.35;;
30185;SDS011;31152;49.190;8.122;2022-08-03T15:53:33;5.13;;;2.33;;
30185;SDS011;31152;49.190;8.122;2022-08-03T15:56:01;3.35;;;2.00;;
30185;SDS011;31152;49.190;8.122;2022-08-03T15:58:36;2.47;;;2.28;;
30185;SDS011;31152;49.190;8.122;2022-08-03T16:01:26;2.83;;;2.63;;
30185;SDS011;31152;49.190;8.122;2022-08-03T16:03:53;3.75;;;2.28;;
30185;SDS011;31152;49.190;8.122;2022-08-03T16:06:20;2.65;;;2.45;;
30185;SDS011;31152;49.190;8.122;2022-08-03T16:09:00;3.33;;;2.50;;
30185;SDS011;31152;49.190;8.122;2022-08-03T16:11:28;13.10;;;3.75;;
30185;SDS011;31152;49.190;8.122;2022-08-03T16:13:58;3.03;;;2.30;;
30185;SDS011;31152;49.190;8.122;2022-08-03T16:16:47;3.05;;;2.75;;
30185;SDS011;31152;49.190;8.122;2022-08-03T16:19:14;3.97;;;2.83;;